Time;durP1;ratioP1;P1;durP2;ratioP2;P2;SDS_P1;SDS_P2;PMS_P1;PMS_P2;Temp;Humidity;BMP_temperature;BMP_pressure;BME280_temperature;BME280_humidity;BME280_pressure;Samples;Min_cycle;Max_cycle;Signal;HPM_P1;HPM_P2
2022/08/23 00:01:26;;;;;;;1.73;1.23;;;;;;;18.11;100.00;94068.25;5042900;28;20032;-90
2022/08/23 00:03:52;;;;;;;1.75;1.00;;;;;;;18.06;100.00;94059.41;5059142;28;20448;-89
2022/08/23 00:06:18;;;;;;;1.95;1.17;;;;;;;18.06;100.00;94055.97;5042374;28;20050;-91
2022/08/23 00:08:47;;;;;;;1.10;0.90;;;;;;;18.02;100.00;94053.22;5041693;28;20127;-89
2022/08/23 00:11:37;;;;;;;3.25;1.20;;;;;;;18.07;100.00;94060.16;5077061;28;20036;-90
2022/08/23 00:14:13;;;;;;;2.17;0.90;;;;;;;18.08;100.00;94059.09;5059000;28;20037;-89
2022/08/23 00:16:39;;;;;;;1.73;0.93;;;;;;;18.14;100.00;94052.50;5059210;28;20032;-89
2022/08/23 00:19:09;;;;;;;1.20;1.00;;;;;;;18.16;100.00;94054.84;5076622;28;20021;-90
2022/08/23 00:21:36;;;;;;;4.95;1.10;;;;;;;17.97;100.00;94050.69;5058960;28;20571;-90
2022/08/23 00:24:04;;;;;;;1.52;0.90;;;;;;;18.09;100.00;94058.00;5058250;28;20121;-89
2022/08/23 00:26:48;;;;;;;1.98;1.08;;;;;;;18.04;100.00;94058.16;5058500;28;20024;-90
2022/08/23 00:29:14;;;;;;;3.15;1.17;;;;;;;18.16;100.00;94047.63;5076140;28;20028;-90
2022/08/23 00:31:39;;;;;;;3.28;1.13;;;;;;;18.23;100.00;94047.91;5058753;28;20352;-89
2022/08/23 00:34:05;;;;;;;1.33;1.08;;;;;;;18.56;100.00;94046.38;5076652;28;20070;-91
2022/08/23 00:36:30;;;;;;;2.50;1.42;;;;;;;18.73;100.00;94052.66;5058722;28;20352;-89
2022/08/23 00:38:56;;;;;;;3.83;0.93;;;;;;;18.85;100.00;94047.38;5042231;28;20024;-90
2022/08/23 00:41:21;;;;;;;2.80;1.13;;;;;;;18.94;100.00;94042.75;5058489;28;20024;-91
2022/08/23 00:49:56;;;;;;;3.25;1.27;;;;;;;19.16;100.00;94061.31;5076159;28;20182;-92
2022/08/23 00:52:29;;;;;;;2.40;1.00;;;;;;;19.01;100.00;94044.13;5025288;28;20441;-91
2022/08/23 00:55:03;;;;;;;1.52;0.85;;;;;;;18.86;100.00;94050.81;5019509;28;20029;-91
2022/08/23 00:57:32;;;;;;;2.60;1.30;;;;;;;18.67;100.00;94051.28;5026750;28;20036;-91
2022/08/23 00:59:57;;;;;;;2.72;1.25;;;;;;;18.64;100.00;94036.78;5042141;28;20119;-91
2022/08/23 01:02:23;;;;;;;1.73;1.08;;;;;;;18.57;100.00;94041.88;5041882;28;20392;-90
2022/08/23 01:04:56;;;;;;;2.25;1.25;;;;;;;18.36;100.00;94040.78;5042002;28;20376;-91
2022/08/23 01:07:34;;;;;;;2.03;1.10;;;;;;;18.25;100.00;94044.16;5042218;28;20029;-90
2022/08/23 01:10:15;;;;;;;3.75;1.10;;;;;;;18.21;100.00;94033.41;5041894;28;20032;-91
2022/08/23 01:12:54;;;;;;;1.58;0.93;;;;;;;18.05;100.00;94041.97;5043297;28;20033;-91
2022/08/23 01:15:46;;;;;;;2.25;0.90;;;;;;;18.00;100.00;94039.44;5059816;28;20036;-92
2022/08/23 01:18:14;;;;;;;1.95;1.23;;;;;;;17.76;100.00;94032.91;5041996;28;20029;-91
2022/08/23 01:20:55;;;;;;;9.45;2.58;;;;;;;17.85;100.00;94045.31;5025623;28;20040;-93
2022/08/23 01:23:30;;;;;;;1.58;1.10;;;;;;;17.88;100.00;94042.81;5025252;28;20064;-91
2022/08/23 01:25:57;;;;;;;2.85;1.33;;;;;;;17.82;100.00;94044.09;5041935;28;20032;-91
2022/08/23 01:28:23;;;;;;;1.70;1.10;;;;;;;18.20;100.00;94037.94;5025313;28;20039;-90
2022/08/23 01:30:48;;;;;;;1.35;0.90;;;;;;;17.98;100.00;94035.59;5059551;28;20037;-91
2022/08/23 01:33:14;;;;;;;1.65;0.90;;;;;;;17.98;100.00;94031.03;5024908;28;20037;-91
2022/08/23 01:35:44;;;;;;;1.60;1.02;;;;;;;18.06;100.00;94032.13;5041754;28;20495;-93
2022/08/23 01:38:10;;;;;;;2.00;1.23;;;;;;;17.80;100.00;94039.09;5025189;28;20127;-93
2022/08/23 01:40:42;;;;;;;5.75;1.00;;;;;;;18.05;100.00;94039.31;5041491;28;20037;-93
2022/08/23 01:43:08;;;;;;;1.05;0.93;;;;;;;18.21;100.00;94041.38;5042431;28;20121;-92
2022/08/23 01:45:34;;;;;;;3.25;1.27;;;;;;;18.26;100.00;94032.47;5025021;28;20491;-92
2022/08/23 01:48:00;;;;;;;2.00;1.10;;;;;;;18.42;100.00;94043.22;5025033;28;20421;-92
2022/08/23 01:50:29;;;;;;;1.40;0.90;;;;;;;18.45;100.00;94038.06;5041545;28;20032;-90
2022/08/23 01:52:55;;;;;;;2.00;1.05;;;;;;;18.56;100.00;94035.78;5041570;28;20468;-92
2022/08/23 01:55:21;;;;;;;1.85;1.10;;;;;;;18.56;100.00;94038.44;5024618;28;20064;-92
2022/08/23 01:57:51;;;;;;;3.28;1.30;;;;;;;18.61;100.00;94040.09;5040617;28;20564;-91
2022/08/23 02:00:19;;;;;;;1.65;1.13;;;;;;;18.60;100.00;94035.91;5025152;28;20036;-92
2022/08/23 02:02:45;;;;;;;1.50;1.15;;;;;;;18.58;100.00;94043.41;5024757;28;20033;-93
2022/08/23 02:05:14;;;;;;;5.13;1.50;;;;;;;18.71;100.00;94038.91;5024807;28;20033;-91
2022/08/23 02:07:39;;;;;;;1.77;1.02;;;;;;;18.75;100.00;94037.94;5041257;28;20029;-91
2022/08/23 02:10:06;;;;;;;2.03;1.00;;;;;;;18.73;100.00;94037.50;5041023;28;20081;-93
2022/08/23 02:12:32;;;;;;;1.60;1.20;;;;;;;18.64;100.00;94037.59;5024462;28;20037;-91
2022/08/23 02:14:58;;;;;;;1.73;1.05;;;;;;;18.61;100.00;94040.09;5024684;28;20033;-92
2022/08/23 02:17:25;;;;;;;2.67;1.13;;;;;;;18.53;100.00;94048.94;5024349;28;20028;-91
2022/08/23 02:19:51;;;;;;;1.45;1.08;;;;;;;18.73;100.00;94036.75;5024621;28;20053;-91
2022/08/23 02:22:19;;;;;;;1.95;0.90;;;;;;;18.54;100.00;94045.19;5040578;28;20075;-92
2022/08/23 02:24:46;;;;;;;1.40;1.08;;;;;;;18.18;100.00;94040.13;5041025;28;20434;-92
2022/08/23 02:27:25;;;;;;;;;;;;;;;;;;;;;
2022/08/23 02:29:57;;;;;;;1.05;0.80;;;;;;;18.50;100.00;94035.19;5058288;28;20027;-93
2022/08/23 02:32:22;;;;;;;2.85;1.05;;;;;;;18.81;100.00;94035.88;5041354;28;20039;-92
2022/08/23 02:34:48;;;;;;;1.48;1.02;;;;;;;18.76;100.00;94039.50;5024484;28;20128;-91
2022/08/23 02:37:13;;;;;;;2.28;1.00;;;;;;;18.78;100.00;94039.19;5040303;28;20128;-91
2022/08/23 02:39:43;;;;;;;1.63;1.30;;;;;;;18.76;100.00;94039.50;5040377;28;20053;-92
2022/08/23 02:42:14;;;;;;;2.50;1.10;;;;;;;18.74;100.00;94041.69;5040923;28;20036;-92
2022/08/23 02:44:44;;;;;;;1.45;1.05;;;;;;;18.69;100.00;94038.47;5041954;28;20029;-94
2022/08/23 02:47:11;;;;;;;2.03;1.08;;;;;;;18.50;100.00;94045.81;5024198;28;20091;-92
2022/08/23 02:49:37;;;;;;;1.70;1.02;;;;;;;18.54;100.00;94045.19;5007512;28;20041;-91
2022/08/23 02:52:11;;;;;;;1.55;0.90;;;;;;;18.61;100.00;94046.19;5023518;28;20033;-93
2022/08/23 02:54:37;;;;;;;1.48;1.10;;;;;;;18.59;100.00;94053.72;5024949;28;20040;-93
2022/08/23 02:57:09;;;;;;;1.02;0.93;;;;;;;18.57;100.00;94049.81;5023973;28;20033;-93
2022/08/23 02:59:38;;;;;;;2.22;1.10;;;;;;;18.70;100.00;94046.13;5023952;28;20032;-92
2022/08/23 03:02:03;;;;;;;2.70;1.33;;;;;;;18.76;100.00;94044.03;5024190;28;20039;-94
2022/08/23 03:04:34;;;;;;;4.95;1.35;;;;;;;18.68;100.00;94043.03;5023846;28;20028;-93
2022/08/23 03:07:22;;;;;;;1.67;1.10;;;;;;;18.83;100.00;94048.81;5040790;28;20040;-93
2022/08/23 03:09:51;;;;;;;1.77;1.25;;;;;;;18.82;100.00;94049.94;5040376;28;20334;-93
2022/08/23 03:12:18;;;;;;;1.60;1.00;;;;;;;18.78;100.00;94042.59;5023905;28;20033;-94
2022/08/23 03:14:51;;;;;;;2.33;1.30;;;;;;;18.78;100.00;94049.78;5023898;28;20021;-93
2022/08/23 03:17:27;;;;;;;3.40;0.90;;;;;;;18.71;100.00;94052.19;5024338;28;20028;-93
2022/08/23 03:19:55;;;;;;;2.75;0.95;;;;;;;18.64;100.00;94050.84;5024275;28;20023;-94
2022/08/23 03:22:23;;;;;;;2.58;1.10;;;;;;;18.64;100.00;94050.06;5040026;28;20033;-92
2022/08/23 03:24:50;;;;;;;1.60;1.17;;;;;;;18.62;100.00;94054.91;5039868;28;20035;-92
2022/08/23 03:27:16;;;;;;;2.53;1.30;;;;;;;18.64;100.00;94050.06;5039792;28;20024;-92
2022/08/23 03:29:46;;;;;;;2.55;1.20;;;;;;;18.56;100.00;94057.00;5057392;28;20028;-92
2022/08/23 03:32:12;;;;;;;1.23;0.85;;;;;;;18.66;100.00;94053.19;5023645;28;20045;-92
2022/08/23 03:34:46;;;;;;;2.03;1.20;;;;;;;18.62;100.00;94057.56;5023282;28;20037;-93
2022/08/23 03:37:14;;;;;;;1.88;1.23;;;;;;;18.51;100.00;94054.56;5057125;28;20060;-90
2022/08/23 03:39:39;;;;;;;2.40;1.20;;;;;;;18.53;100.00;94057.66;5039877;28;20052;-91
2022/08/23 03:42:15;;;;;;;;;;;;;;;;;;;;;
2022/08/23 03:44:41;;;;;;;2.17;1.00;;;;;;;18.46;100.00;94058.19;5040643;28;20024;-90
2022/08/23 03:47:08;;;;;;;1.75;1.00;;;;;;;18.33;100.00;94062.66;5022828;28;20127;-91
2022/08/23 03:49:34;;;;;;;2.03;1.08;;;;;;;18.28;100.00;94060.19;5038918;28;20036;-91
2022/08/23 03:52:00;;;;;;;1.77;1.08;;;;;;;18.27;100.00;94063.94;5039039;28;20037;-90
2022/08/23 03:54:26;;;;;;;2.05;0.93;;;;;;;18.23;100.00;94063.81;5038844;28;20464;-90
2022/08/23 03:57:01;;;;;;;3.97;1.05;;;;;;;18.20;100.00;94063.69;5038823;28;20335;-90
2022/08/23 03:59:33;;;;;;;2.03;1.00;;;;;;;17.94;100.00;94068.03;5039531;28;20084;-90
2022/08/23 04:01:59;;;;;;;1.17;1.05;;;;;;;17.83;100.00;94077.44;5023189;28;20353;-90
2022/08/23 04:04:25;;;;;;;1.08;0.90;;;;;;;17.52;100.00;94086.47;5038979;28;20028;-93
2022/08/23 04:07:39;;;;;;;1.95;1.10;;;;;;;17.48;100.00;94088.19;5022044;28;20033;-91
2022/08/23 04:10:07;;;;;;;4.45;1.10;;;;;;;17.35;100.00;94093.38;5034968;28;20345;-92
2022/08/23 04:12:34;;;;;;;4.32;1.40;;;;;;;17.42;100.00;94090.22;5022634;28;20029;-93
2022/08/23 04:14:59;;;;;;;2.15;1.00;;;;;;;17.20;100.00;94086.72;5056805;28;20029;-93
2022/08/23 04:17:25;;;;;;;2.03;1.15;;;;;;;17.18;100.00;94091.56;5039273;28;20056;-92
2022/08/23 04:19:51;;;;;;;3.58;1.27;;;;;;;17.20;100.00;94086.72;5022530;28;20029;-93
2022/08/23 04:22:17;;;;;;;1.48;1.10;;;;;;;17.20;100.00;94093.88;5039382;28;20036;-90
2022/08/23 04:24:47;;;;;;;2.67;1.20;;;;;;;17.14;100.00;94092.50;5038947;28;20036;-90
2022/08/23 04:27:13;;;;;;;2.92;1.00;;;;;;;17.12;100.00;94100.75;5039347;28;20035;-89
2022/08/23 04:29:39;;;;;;;2.58;1.15;;;;;;;17.08;100.00;94102.47;5038704;28;20021;-90
2022/08/23 04:32:06;;;;;;;2.05;1.00;;;;;;;17.05;100.00;94108.41;5040834;28;20082;-90
2022/08/23 04:34:33;;;;;;;1.90;1.25;;;;;;;16.97;100.00;94104.66;5042895;28;20032;-90
2022/08/23 04:36:58;;;;;;;2.63;1.77;;;;;;;17.02;100.00;94099.22;5043155;28;20048;-90
2022/08/23 04:39:25;;;;;;;3.97;1.23;;;;;;;17.03;100.00;94116.66;5042129;28;20025;-90
2022/08/23 04:44:34;;;;;;;1.58;1.17;;;;;;;17.02;100.00;94115.09;5045282;28;20107;-90
2022/08/23 04:47:00;;;;;;;1.30;1.00;;;;;;;17.08;100.00;94111.22;5041554;28;20040;-90
2022/08/23 04:49:26;;;;;;;1.85;1.33;;;;;;;17.12;100.00;94113.22;5041956;28;20029;-90
2022/08/23 04:52:02;;;;;;;;;;;;;;;;;;;;;
2022/08/23 04:54:38;;;;;;;;;;;;;;;;;;;;;
2022/08/23 04:57:05;;;;;;;2.03;1.25;;;;;;;17.46;100.00;94112.34;5043851;28;20025;-90
2022/08/23 04:59:31;;;;;;;1.77;1.05;;;;;;;17.41;100.00;94114.41;5059698;28;20021;-90
2022/08/23 05:01:56;;;;;;;2.47;1.52;;;;;;;17.27;100.00;94117.22;5042604;28;20025;-91
2022/08/23 05:04:22;;;;;;;1.50;0.93;;;;;;;17.34;100.00;94117.53;5025579;28;20025;-90
2022/08/23 05:06:50;;;;;;;1.27;0.90;;;;;;;17.38;100.00;94115.81;5042104;28;20158;-90
2022/08/23 05:09:16;;;;;;;2.17;1.23;;;;;;;17.33;100.00;94114.09;5041855;28;20044;-89
2022/08/23 05:11:42;;;;;;;2.42;1.33;;;;;;;17.43;100.00;94115.66;5009330;28;20037;-91
2022/08/23 05:14:07;;;;;;;4.40;1.65;;;;;;;17.56;100.00;94127.13;5059447;28;20025;-92
2022/08/23 05:16:32;;;;;;;2.65;1.13;;;;;;;17.90;100.00;94119.34;5041608;28;20033;-90
2022/08/23 05:18:58;;;;;;;1.38;1.10;;;;;;;18.11;100.00;94124.72;5041501;28;20051;-92
2022/08/23 05:21:26;;;;;;;2.17;1.10;;;;;;;18.30;100.00;94129.59;5041702;28;20025;-90
2022/08/23 05:23:52;;;;;;;1.65;1.20;;;;;;;18.33;100.00;94128.16;5042367;28;20342;-90
2022/08/23 05:26:28;;;;;;;;;;;;;;;;;;;;;
2022/08/23 05:28:56;;;;;;;1.60;1.10;;;;;;;18.44;100.00;94131.22;5042730;28;20028;-91
2022/08/23 05:31:34;;;;;;;1.05;0.85;;;;;;;18.51;100.00;94126.97;5041887;28;20423;-93
2022/08/23 05:34:07;;;;;;;2.15;1.08;;;;;;;18.59;100.00;94127.22;5043002;28;20449;-90
2022/08/23 05:36:42;;;;;;;2.03;1.05;;;;;;;18.79;100.00;94134.41;5042898;28;20040;-90
2022/08/23 05:39:14;;;;;;;4.03;1.13;;;;;;;18.87;100.00;94138.09;5041364;28;20028;-90
2022/08/23 05:41:43;;;;;;;2.17;1.20;;;;;;;18.99;100.00;94133.91;5026949;28;20094;-90
2022/08/23 05:44:14;;;;;;;1.70;1.17;;;;;;;19.09;100.00;94141.50;5025233;28;20345;-90
2022/08/23 05:46:42;;;;;;;1.00;0.90;;;;;;;19.20;100.00;94147.16;5022347;28;20434;-90
2022/08/23 05:49:10;;;;;;;3.42;0.93;;;;;;;19.29;100.00;94150.53;5021792;28;20032;-92
2022/08/23 05:51:42;;;;;;;2.78;0.90;;;;;;;19.37;100.00;94154.19;5020940;28;20048;-89
2022/08/23 05:54:10;;;;;;;2.00;1.00;;;;;;;19.54;100.00;94157.78;5005964;28;20037;-90
2022/08/23 05:59:26;;;;;;;2.95;1.10;;;;;;;19.57;100.00;94147.28;5024001;28;20031;-89
2022/08/23 06:01:56;;;;;;;1.55;1.00;;;;;;;19.67;100.00;94150.63;5021299;28;20029;-89
2022/08/23 06:04:22;;;;;;;1.67;1.23;;;;;;;19.76;100.00;94152.06;5021349;28;20112;-89
2022/08/23 06:06:58;;;;;;;;;;;;;;;;;;;;;
2022/08/23 06:09:28;;;;;;;3.13;0.95;;;;;;;19.89;100.00;94150.19;5022250;28;20022;-90
2022/08/23 06:11:57;;;;;;;1.98;0.93;;;;;;;20.11;100.00;94150.88;5021453;28;20025;-91
2022/08/23 06:14:23;;;;;;;1.50;1.00;;;;;;;20.09;100.00;94158.44;5005245;28;20036;-93
2022/08/23 06:16:52;;;;;;;1.85;1.08;;;;;;;20.12;100.00;94155.09;5038596;28;20437;-91
2022/08/23 06:19:17;;;;;;;4.90;1.00;;;;;;;20.07;100.00;94152.63;5021375;28;20018;-91
2022/08/23 06:21:53;;;;;;;;;;;;;;;;;;;;;
2022/08/23 06:24:21;;;;;;;1.80;0.95;;;;;;;19.97;100.00;94158.41;5022308;28;20044;-90
2022/08/23 06:26:49;;;;;;;2.00;1.10;;;;;;;19.97;100.00;94159.19;5021087;28;20025;-89
2022/08/23 06:29:26;;;;;;;;;;;;;;;;;;;;;
2022/08/23 06:31:55;;;;;;;1.83;1.15;;;;;;;19.85;100.00;94172.44;5022082;28;20452;-91
2022/08/23 06:34:39;;;;;;;2.28;1.20;;;;;;;19.85;100.00;94169.78;5020920;28;20183;-89
2022/08/23 06:37:10;;;;;;;1.88;1.00;;;;;;;20.12;100.00;94171.06;5022309;28;20029;-91
2022/08/23 06:39:39;;;;;;;1.00;0.93;;;;;;;20.29;100.00;94175.34;5003866;28;20022;-89
2022/08/23 06:42:18;;;;;;;1.42;0.90;;;;;;;20.46;100.00;94179.66;5030751;28;20032;-88
2022/08/23 06:44:58;;;;;;;2.08;1.10;;;;;;;20.36;100.00;94174.03;5041564;28;20029;-89
2022/08/23 06:47:36;;;;;;;;;;;;;;;;;;;;;
2022/08/23 06:50:05;;;;;;;1.80;1.10;;;;;;;20.66;100.00;94187.06;5057542;28;20023;-91
2022/08/23 06:52:30;;;;;;;3.35;0.80;;;;;;;20.74;100.00;94183.50;5023999;28;20029;-91
2022/08/23 06:54:56;;;;;;;1.10;0.93;;;;;;;20.93;100.00;94193.56;5039439;28;20319;-91
2022/08/23 06:57:23;;;;;;;3.53;1.02;;;;;;;20.98;100.00;94187.22;5040004;28;20028;-90
2022/08/23 06:59:56;;;;;;;2.80;1.02;;;;;;;20.90;100.00;94183.59;5039999;28;20025;-89
2022/08/23 07:02:22;;;;;;;2.63;0.97;;;;;;;20.99;100.00;94192.22;5024707;28;20325;-89
2022/08/23 07:04:52;;;;;;;1.48;0.98;;;;;;;20.73;100.00;94188.03;5023542;28;20267;-89
2022/08/23 07:07:18;;;;;;;1.58;0.85;;;;;;;21.03;100.00;94193.09;5024120;28;20032;-90
2022/08/23 07:09:44;;;;;;;1.30;1.08;;;;;;;21.30;100.00;94190.78;5023344;28;20021;-90
2022/08/23 07:12:10;;;;;;;1.48;1.05;;;;;;;21.64;100.00;94193.16;5023838;28;20031;-91
2022/08/23 07:14:43;;;;;;;2.35;1.20;;;;;;;21.85;100.00;94190.28;5023620;28;20021;-91
2022/08/23 07:17:11;;;;;;;1.08;0.90;;;;;;;22.23;100.00;94192.69;5024754;28;20115;-91
2022/08/23 07:19:47;;;;;;;;;;;;;;;;;;;;;
2022/08/23 07:22:15;;;;;;;1.55;1.13;;;;;;;22.17;100.00;94198.28;5041157;28;20337;-92
2022/08/23 07:24:41;;;;;;;1.20;0.98;;;;;;;22.66;100.00;94196.31;5023884;28;20341;-93
2022/08/23 07:27:09;;;;;;;2.15;1.40;;;;;;;22.78;100.00;94200.00;5023558;28;20115;-91
2022/08/23 07:29:45;;;;;;;2.47;1.33;;;;;;;23.02;100.00;94193.63;5023133;28;20029;-89
2022/08/23 07:32:12;;;;;;;2.03;1.20;;;;;;;22.88;100.00;94207.47;5040781;28;20120;-90
2022/08/23 07:34:38;;;;;;;3.78;1.00;;;;;;;22.81;100.00;94202.75;5039320;28;20048;-90
2022/08/23 07:37:06;;;;;;;3.15;0.82;;;;;;;22.71;100.00;94201.41;5039082;28;20029;-89
2022/08/23 07:39:31;;;;;;;5.50;1.00;;;;;;;22.55;100.00;94206.78;5039427;28;20358;-87
2022/08/23 07:41:59;;;;;;;1.15;0.98;;;;;;;22.49;100.00;94213.53;5022795;28;20036;-88
2022/08/23 07:44:26;;;;;;;3.40;1.25;;;;;;;22.58;100.00;94214.09;5056610;28;20024;-89
2022/08/23 07:46:59;;;;;;;1.65;1.02;;;;;;;22.49;100.00;94215.41;5039400;28;20051;-88
2022/08/23 07:49:27;;;;;;;2.13;1.38;;;;;;;22.63;100.00;94220.31;5056563;28;20453;-87
2022/08/23 07:51:53;;;;;;;5.43;1.52;;;;;;;22.66;100.00;94222.28;5039335;28;20064;-88
2022/08/23 07:54:21;;;;;;;2.85;1.13;;;;;;;22.93;100.00;94227.81;5056691;28;20094;-87
2022/08/23 07:56:49;;;;;;;1.27;0.80;;;;;;;23.09;100.00;94222.38;5039352;28;20376;-89
2022/08/23 07:59:15;;;;;;;2.42;1.10;;;;;;;23.18;100.00;94219.53;5022928;28;20033;-88
2022/08/23 08:01:44;;;;;;;2.20;1.15;;;;;;;23.24;100.00;94218.91;5056799;28;20037;-89
2022/08/23 08:04:21;;;;;;;;;;;;;;;;;;;;;
2022/08/23 08:07:04;;;;;;;;;;;;;;;;;;;;;
2022/08/23 08:09:31;;;;;;;3.07;1.17;;;;;;;23.62;100.00;94239.84;5060082;28;20640;-89
2022/08/23 08:12:00;;;;;;;1.90;1.10;;;;;;;23.81;100.00;94239.06;5060732;28;20275;-89
2022/08/23 08:14:33;;;;;;;1.38;1.00;;;;;;;23.77;100.00;94244.34;5060716;28;20029;-89
2022/08/23 08:17:28;;;;;;;;;;;;;;;;;;;;;
2022/08/23 08:20:35;;;;;;;;;;;;;;;;;;;;;
2022/08/23 08:23:44;;;;;;;3.72;0.90;;;;;;;24.51;97.46;94244.41;5058682;28;20119;-90
2022/08/23 08:26:16;;;;;;;5.13;1.33;;;;;;;24.11;95.57;94241.13;5056028;28;20062;-89
2022/08/23 08:29:02;;;;;;;2.10;1.13;;;;;;;24.37;100.00;94248.41;5060333;28;20028;-90
2022/08/23 08:31:31;;;;;;;9.95;1.60;;;;;;;24.20;100.00;94241.66;5060058;28;20081;-89
2022/08/23 08:33:57;;;;;;;4.57;1.17;;;;;;;23.89;100.00;94242.63;5060178;28;20032;-91
2022/08/23 08:37:12;;;;;;;;;;;;;;;;;;;;;
2022/08/23 08:39:54;;;;;;;;;;;;;;;;;;;;;
2022/08/23 08:42:53;;;;;;;1.52;0.80;;;;;;;24.45;91.53;94251.22;5044951;28;20043;-90
2022/08/23 08:45:49;;;;;;;3.75;1.20;;;;;;;24.48;100.00;94253.16;5043483;28;20350;-93
2022/08/23 08:49:32;;;;;;;4.88;1.08;;;;;;;24.50;77.83;94254.34;5041820;28;20063;-92
2022/08/23 08:52:23;;;;;;;2.58;1.10;;;;;;;24.47;74.01;94256.97;5050273;28;20033;-90
2022/08/23 08:55:37;;;;;;;1.00;0.80;;;;;;;24.80;77.18;94263.59;5042727;28;20024;-92
2022/08/23 08:58:16;;;;;;;2.33;1.00;;;;;;;24.73;70.40;94261.56;5020648;28;20047;-92
2022/08/23 09:00:57;;;;;;;;;;;;;;;;;;;;;
2022/08/23 09:03:31;;;;;;;3.50;0.88;;;;;;;24.75;73.77;94275.38;5044207;28;20028;-92
2022/08/23 09:06:20;;;;;;;1.10;0.88;;;;;;;24.78;74.88;94266.66;5044728;28;20032;-95
2022/08/23 09:09:35;;;;;;;3.53;0.95;;;;;;;24.54;68.03;94270.47;5047106;28;20032;-95
2022/08/23 09:12:48;;;;;;;1.98;1.20;;;;;;;24.73;69.38;94274.19;5063469;28;20029;-93
2022/08/23 09:15:49;;;;;;;;;;;;;;;24.60;56.04;94276.28;4954566;28;20033;-91
2022/08/23 09:18:28;;;;;;;;;;;;;;;;;;;;;
2022/08/23 09:21:14;;;;;;;1.60;0.95;;;;;;;24.42;61.35;94277.56;5060209;28;20021;-92
2022/08/23 09:23:52;;;;;;;1.85;1.10;;;;;;;24.76;65.70;94281.50;5042934;28;20047;-91
2022/08/23 09:26:29;;;;;;;8.40;0.82;;;;;;;24.84;68.80;94283.19;5042643;28;20025;-90
2022/08/23 09:29:20;;;;;;;5.38;1.25;;;;;;;24.82;66.20;94272.06;5042719;28;20029;-92
2022/08/23 09:32:02;;;;;;;2.58;1.17;;;;;;;24.30;66.30;94280.44;5046891;28;20124;-93
2022/08/23 09:34:45;;;;;;;1.03;0.90;;;;;;;24.46;63.72;94279.53;5060492;28;20068;-92
2022/08/23 09:37:58;;;;;;;0.85;0.73;;;;;;;24.36;64.36;94287.03;5043044;28;20082;-94
2022/08/23 09:40:25;;;;;;;1.45;1.00;;;;;;;24.54;69.46;94283.88;5060567;28;20017;-90
2022/08/23 09:43:24;;;;;;;;;;;;;;;;;;;;;
2022/08/23 09:46:06;;;;;;;1.40;0.90;;;;;;;24.54;63.16;94281.94;5059805;28;20029;-90
2022/08/23 09:48:45;;;;;;;3.38;1.00;;;;;;;24.78;65.96;94284.63;5059710;28;20036;-91
2022/08/23 09:51:35;;;;;;;6.03;1.10;;;;;;;24.94;62.77;94289.84;5042127;28;20036;-90
2022/08/23 09:57:36;;;;;;;0.82;0.80;;;;;;;25.36;54.22;94296.91;5044391;28;20033;-91
2022/08/23 10:00:33;;;;;;;1.65;1.10;;;;;;;25.08;55.18;94298.06;5040852;28;20041;-90
2022/08/23 10:03:24;;;;;;;3.47;1.05;;;;;;;24.95;57.11;94297.50;5041602;28;20094;-89
2022/08/23 10:06:01;;;;;;;9.85;1.17;;;;;;;25.13;59.99;94294.31;5058730;28;20033;-89
2022/08/23 10:08:48;;;;;;;;;;;;;;;;;;;;;
2022/08/23 10:11:20;;;;;;;2.85;0.90;;;;;;;25.25;51.51;94304.81;5041504;28;20032;-90
2022/08/23 10:13:55;;;;;;;1.10;0.90;;;;;;;25.12;49.11;94304.25;5058841;28;20021;-93
2022/08/23 10:16:56;;;;;;;4.15;1.23;;;;;;;25.32;53.60;94300.66;5042122;28;20033;-93
2022/08/23 10:20:04;;;;;;;3.40;1.10;;;;;;;25.32;49.77;94303.34;5041199;28;20461;-93
2022/08/23 10:22:43;;;;;;;5.40;1.30;;;;;;;25.46;54.58;94303.53;4991883;28;20037;-93
2022/08/23 10:25:34;;;;;;;1.38;0.85;;;;;;;25.57;49.28;94297.56;5025032;28;20033;-92
2022/08/23 10:31:03;;;;;;;1.38;0.80;;;;;;;25.46;48.96;94300.84;5042833;28;20107;-88
2022/08/23 10:33:42;;;;;;;2.25;0.90;;;;;;;25.93;50.60;94306.00;5039892;28;20032;-88
2022/08/23 10:36:13;;;;;;;4.45;1.15;;;;;;;25.75;48.91;94303.09;5057826;28;20322;-87
2022/08/23 10:38:56;;;;;;;3.08;1.33;;;;;;;25.64;48.95;94297.63;5057590;28;20025;-90
2022/08/23 10:41:41;;;;;;;7.15;1.10;;;;;;;25.67;49.11;94299.56;5057731;28;20107;-88
2022/08/23 10:44:34;;;;;;;4.38;0.80;;;;;;;26.00;48.81;94299.94;5057774;28;20440;-88
2022/08/23 10:47:18;;;;;;;2.42;1.00;;;;;;;26.16;49.91;94297.03;5036185;28;20064;-88
2022/08/23 10:50:00;;;;;;;;;;;;;;;;;;;;;
2022/08/23 10:52:42;;;;;;;1.98;1.02;;;;;;;25.89;51.11;94302.50;5041271;28;20029;-90
2022/08/23 10:55:33;;;;;;;;;;;;;;;;;;;;;
2022/08/23 10:58:12;;;;;;;2.05;1.13;;;;;;;25.87;49.55;94302.09;5042662;28;20013;-89
2022/08/23 11:00:38;;;;;;;2.05;0.90;;;;;;;26.08;51.93;94302.31;5039765;28;20021;-89
2022/08/23 11:03:34;;;;;;;2.90;1.20;;;;;;;26.30;52.29;94302.56;5039821;28;20104;-89
2022/08/23 11:06:44;;;;;;;;;;;;;;;;;;;;;
2022/08/23 11:09:18;;;;;;;3.28;1.20;;;;;;;25.90;52.76;94290.63;4980120;28;20033;-89
2022/08/23 11:11:48;;;;;;;4.35;1.10;;;;;;;25.92;50.73;94293.72;5057376;28;20086;-89
2022/08/23 11:14:50;;;;;;;2.08;1.27;;;;;;;25.89;51.68;94302.50;5039999;28;20111;-90
2022/08/23 11:17:36;;;;;;;2.15;1.13;;;;;;;25.23;52.97;94295.59;5039527;28;20025;-92
2022/08/23 11:20:11;;;;;;;2.03;0.98;;;;;;;25.64;54.12;94286.91;5039337;28;20021;-91
2022/08/23 11:23:03;;;;;;;2.10;1.30;;;;;;;26.13;53.15;94295.84;5023432;28;20334;-88
2022/08/23 11:25:29;;;;;;;3.75;1.40;;;;;;;26.02;50.57;94297.63;5039232;28;20331;-89
2022/08/23 11:28:22;;;;;;;2.13;1.10;;;;;;;26.02;54.42;94290.38;5039178;28;20075;-91
2022/08/23 11:30:53;;;;;;;5.03;1.65;;;;;;;26.24;53.38;94293.28;5039279;28;20438;-90
2022/08/23 11:33:26;;;;;;;2.67;1.20;;;;;;;26.10;51.50;94296.59;5023364;28;20013;-88
2022/08/23 11:36:24;;;;;;;1.55;1.13;;;;;;;25.97;55.50;94301.44;5039493;28;20062;-89
2022/08/23 11:38:49;;;;;;;1.88;1.10;;;;;;;25.98;53.91;94297.63;4995953;28;20024;-90
2022/08/23 11:41:18;;;;;;;2.17;1.13;;;;;;;25.72;52.50;94293.13;5056657;28;20086;-87
2022/08/23 11:44:04;;;;;;;4.80;1.42;;;;;;;26.14;53.06;94300.06;5056739;28;20029;-90
2022/08/23 11:46:44;;;;;;;4.10;1.13;;;;;;;26.17;54.51;94303.94;5022725;28;20041;-89
2022/08/23 11:49:43;;;;;;;;;;;;;;;;;;;;;
2022/08/23 11:52:55;;;;;;;;;;;;;;;;;;;;;
2022/08/23 11:55:22;;;;;;;1.30;1.00;;;;;;;26.71;51.66;94307.09;5056535;28;20029;-90
2022/08/23 11:58:15;;;;;;;1.60;1.10;;;;;;;26.65;50.84;94312.03;5056523;28;20029;-89
2022/08/23 12:01:12;;;;;;;2.08;1.13;;;;;;;26.71;54.09;94312.47;5056584;28;20029;-90
2022/08/23 12:03:51;;;;;;;2.78;1.25;;;;;;;26.85;51.56;94313.72;5023293;28;20035;-88
2022/08/23 12:06:33;;;;;;;;;;;;;;;;;;;;;
2022/08/23 12:09:03;;;;;;;13.87;1.50;;;;;;;26.49;50.91;94312.31;5056545;28;20021;-90
2022/08/23 12:11:53;;;;;;;1.55;1.13;;;;;;;26.75;53.88;94309.81;5038948;28;20492;-90
2022/08/23 12:14:31;;;;;;;3.55;1.40;;;;;;;26.43;52.51;94310.34;5055111;28;20378;-89
2022/08/23 12:17:14;;;;;;;3.60;1.23;;;;;;;26.75;51.38;94309.81;5038699;28;20028;-88
2022/08/23 12:20:02;;;;;;;3.90;1.48;;;;;;;27.24;51.22;94307.84;5056109;28;20029;-91
2022/08/23 12:23:06;;;;;;;2.50;1.27;;;;;;;26.81;53.31;94311.00;5040233;28;20056;-89
2022/08/23 12:25:32;;;;;;;5.80;1.35;;;;;;;26.62;53.71;94303.97;5039271;28;20357;-89
2022/08/23 12:28:16;;;;;;;2.15;1.27;;;;;;;26.85;51.77;94300.28;5022756;28;20033;-90
2022/08/23 12:31:23;;;;;;;4.32;1.50;;;;;;;27.27;53.92;94306.31;5024245;28;20029;-89
2022/08/23 12:33:58;;;;;;;1.98;1.30;;;;;;;26.89;55.09;94296.50;5011039;28;20033;-92
2022/08/23 12:36:49;;;;;;;2.13;1.42;;;;;;;26.81;51.74;94302.94;5039466;28;20028;-92
2022/08/23 12:39:38;;;;;;;;;;;;;;;;;;;;;
2022/08/23 12:42:21;;;;;;;3.67;1.65;;;;;;;27.17;52.60;94300.50;5040749;28;20039;-89
2022/08/23 12:45:27;;;;;;;2.30;1.33;;;;;;;27.70;49.81;94295.00;5039945;28;20426;-90
2022/08/23 12:51:24;;;;;;;2.92;1.77;;;;;;;27.66;47.53;94303.03;5017064;28;20036;-89
2022/08/23 12:53:51;;;;;;;2.95;1.20;;;;;;;27.36;48.50;94302.16;5042807;28;20036;-91
2022/08/23 12:56:38;;;;;;;;;;;;;;;;;;;;;
2022/08/23 12:59:53;;;;;;;5.28;1.75;;;;;;;27.14;46.32;94309.34;5043440;28;20047;-93
2022/08/23 13:02:49;;;;;;;2.10;1.40;;;;;;;27.18;47.00;94296.66;5042298;28;20033;-89
2022/08/23 13:05:37;;;;;;;;;;;;;;;;;;;;;
2022/08/23 13:08:44;;;;;;;;;;;;;;;;;;;;;